Time;durP1;ratioP1;P1;durP2;ratioP2;P2;SDS_P1;SDS_P2;PMS_P1;PMS_P2;Temp;Humidity;BMP_temperature;BMP_pressure;BME280_temperature;BME280_humidity;BME280_pressure;Samples;Min_cycle;Max_cycle;Signal;HPM_P1;HPM_P2
2022/10/27 00:01:57;;;;;;;16.55;5.53;;;15.30;99.90;;;;;;5032069;28;20095;-67
2022/10/27 00:04:23;;;;;;;13.43;5.28;;;15.30;99.90;;;;;;5032228;28;20033;-67
2022/10/27 00:06:49;;;;;;;15.23;5.60;;;15.30;99.90;;;;;;5030616;28;20029;-67
2022/10/27 00:09:14;;;;;;;15.00;5.47;;;15.40;99.90;;;;;;5032939;28;20017;-66
2022/10/27 00:11:40;;;;;;;18.63;7.68;;;15.40;99.90;;;;;;5042284;28;20025;-67
2022/10/27 00:14:05;;;;;;;17.15;6.78;;;15.40;99.90;;;;;;5051599;28;20033;-67
2022/10/27 00:16:31;;;;;;;15.10;5.95;;;15.40;99.90;;;;;;5051571;28;20150;-67
2022/10/27 00:18:57;;;;;;;17.63;5.63;;;15.40;99.90;;;;;;5038909;28;20029;-67
2022/10/27 00:21:23;;;;;;;18.17;7.00;;;15.40;99.90;;;;;;5031892;28;20029;-67
2022/10/27 00:23:49;;;;;;;19.42;7.07;;;15.30;99.90;;;;;;5034393;28;20013;-66
2022/10/27 00:26:16;;;;;;;17.80;5.85;;;15.30;99.90;;;;;;5036390;28;20072;-67
2022/10/27 00:28:42;;;;;;;16.30;5.47;;;15.30;99.90;;;;;;5046099;28;20040;-67
2022/10/27 00:31:19;;;;;;;13.07;5.63;;;15.40;99.90;;;;;;5055405;28;20025;-66
2022/10/27 00:33:46;;;;;;;21.95;6.95;;;15.40;99.90;;;;;;5055529;28;20506;-66
2022/10/27 00:36:15;;;;;;;17.58;6.40;;;15.50;99.90;;;;;;5055838;28;20029;-67
2022/10/27 00:38:41;;;;;;;12.43;6.38;;;15.50;99.90;;;;;;5055281;28;20025;-67
2022/10/27 00:41:20;;;;;;;17.08;6.95;;;15.60;99.90;;;;;;5055643;28;20028;-67
2022/10/27 00:43:46;;;;;;;16.85;7.07;;;15.60;99.90;;;;;;5036014;28;20116;-67
2022/10/27 00:46:22;;;;;;;15.05;6.00;;;15.60;99.90;;;;;;5035880;28;20105;-67
2022/10/27 00:48:51;;;;;;;16.95;6.63;;;15.60;99.90;;;;;;5035551;28;20030;-67
2022/10/27 00:51:18;;;;;;;18.50;6.97;;;15.60;99.90;;;;;;5035470;28;20037;-67
2022/10/27 00:53:45;;;;;;;17.30;6.70;;;15.60;99.90;;;;;;5042081;28;20025;-67
2022/10/27 00:56:11;;;;;;;16.80;6.15;;;15.60;99.90;;;;;;5055023;28;20037;-66
2022/10/27 00:58:38;;;;;;;13.20;5.45;;;15.50;99.90;;;;;;5044946;28;20032;-68
2022/10/27 01:01:03;;;;;;;18.42;6.72;;;15.50;99.90;;;;;;5035741;28;20156;-68
2022/10/27 01:03:30;;;;;;;14.02;6.10;;;15.40;99.90;;;;;;5051725;28;20108;-68
2022/10/27 01:05:57;;;;;;;19.90;8.05;;;15.40;99.90;;;;;;5054785;28;20027;-67
2022/10/27 01:08:23;;;;;;;19.02;7.90;;;15.30;99.90;;;;;;5053489;28;20368;-68
2022/10/27 01:10:49;;;;;;;18.23;9.10;;;15.30;99.90;;;;;;5043828;28;20033;-68
2022/10/27 01:13:16;;;;;;;15.52;6.60;;;15.30;99.90;;;;;;5034675;28;20104;-66
2022/10/27 01:16:09;;;;;;;18.85;6.57;;;15.30;99.90;;;;;;5034492;28;20041;-67
2022/10/27 01:18:43;;;;;;;18.38;6.75;;;15.20;99.90;;;;;;5036171;28;20021;-66
2022/10/27 01:21:35;;;;;;;22.33;7.85;;;15.20;99.90;;;;;;5054310;28;20024;-66
2022/10/27 01:24:03;;;;;;;;;;;15.30;99.90;;;;;;5054568;28;20033;-67
2022/10/27 01:26:38;;;;;;;19.13;7.68;;;15.20;99.90;;;;;;5054480;28;19983;-67
2022/10/27 01:29:24;;;;;;;23.80;8.35;;;15.20;99.90;;;;;;5054193;28;20091;-67
2022/10/27 01:32:17;;;;;;;19.35;7.90;;;15.10;99.90;;;;;;5054138;28;20060;-67
2022/10/27 01:34:48;;;;;;;;;;;15.10;99.90;;;;;;5053594;28;20036;-67
2022/10/27 01:37:35;;;;;;;20.95;7.25;;;15.10;99.90;;;;;;5039095;28;19905;-67
2022/10/27 01:40:16;;;;;;;19.85;7.75;;;15.10;99.90;;;;;;5034119;28;20033;-67
2022/10/27 01:42:50;;;;;;;17.23;7.18;;;15.10;99.90;;;;;;5034153;28;20362;-67
2022/10/27 01:45:29;;;;;;;24.38;7.95;;;15.10;99.90;;;;;;5034171;28;20163;-67
2022/10/27 01:47:57;;;;;;;22.38;8.02;;;15.10;99.90;;;;;;5033906;28;20028;-66
2022/10/27 01:50:32;;;;;;;22.17;8.45;;;15.10;99.90;;;;;;5046182;28;20078;-67
2022/10/27 01:52:57;;;;;;;21.73;9.55;;;15.10;99.90;;;;;;5048934;28;20399;-67
2022/10/27 01:55:26;;;;;;;20.75;8.88;;;15.10;99.90;;;;;;5033808;28;20033;-67
2022/10/27 01:58:02;;;;;;;19.05;8.55;;;15.10;99.90;;;;;;5060092;28;20016;-68
2022/10/27 02:00:31;;;;;;;20.25;8.23;;;15.10;99.90;;;;;;5073762;28;20029;-67
2022/10/27 02:03:05;;;;;;;21.20;9.45;;;15.10;99.90;;;;;;5073411;28;20029;-66
2022/10/27 02:05:52;;;;;;;19.40;8.65;;;15.10;99.90;;;;;;5073465;28;20024;-67
2022/10/27 02:08:29;;;;;;;20.30;8.90;;;15.10;99.90;;;;;;5058072;28;20373;-67
2022/10/27 02:11:06;;;;;;;22.60;7.78;;;15.00;99.90;;;;;;5045209;28;20483;-68
2022/10/27 02:13:36;;;;;;;21.65;9.75;;;15.00;99.90;;;;;;5053244;28;20140;-67
2022/10/27 02:16:05;;;;;;;20.10;8.30;;;15.00;99.90;;;;;;5053304;28;20045;-67
2022/10/27 02:18:38;;;;;;;23.02;9.68;;;15.00;99.90;;;;;;5053062;28;20024;-67
2022/10/27 02:21:07;;;;;;;21.40;9.10;;;15.00;99.90;;;;;;5053795;28;20334;-67
2022/10/27 02:23:34;;;;;;;24.75;9.95;;;15.00;99.90;;;;;;5053238;28;20119;-67
2022/10/27 02:26:02;;;;;;;22.50;8.88;;;15.00;99.90;;;;;;5052400;28;20453;-67
2022/10/27 02:28:54;;;;;;;19.88;9.48;;;15.00;99.90;;;;;;5051544;28;20056;-67
2022/10/27 02:31:25;;;;;;;24.50;10.10;;;15.00;99.90;;;;;;5056222;28;20040;-67
2022/10/27 02:33:52;;;;;;;20.92;9.68;;;14.90;99.90;;;;;;5059030;28;20029;-67
2022/10/27 02:36:17;;;;;;;25.02;11.45;;;14.90;99.90;;;;;;5065111;28;20032;-67
2022/10/27 02:38:43;;;;;;;21.00;9.57;;;15.00;99.90;;;;;;5060667;28;20028;-68
2022/10/27 02:41:08;;;;;;;24.35;10.43;;;14.90;99.90;;;;;;5062678;28;20020;-67
2022/10/27 02:43:34;;;;;;;19.45;9.05;;;14.90;99.90;;;;;;5057781;28;20031;-67
2022/10/27 02:46:00;;;;;;;20.58;10.48;;;14.90;99.90;;;;;;5060791;28;20031;-67
2022/10/27 02:48:25;;;;;;;22.83;9.45;;;14.90;99.90;;;;;;5062577;28;20100;-67
2022/10/27 02:50:51;;;;;;;23.20;11.73;;;14.90;99.90;;;;;;5061208;28;20043;-68
2022/10/27 02:53:16;;;;;;;22.75;10.85;;;14.90;99.90;;;;;;5059926;28;20028;-67
2022/10/27 02:55:42;;;;;;;24.33;9.88;;;14.90;99.90;;;;;;5062301;28;20159;-67
2022/10/27 02:58:08;;;;;;;21.95;10.60;;;14.80;99.90;;;;;;5060665;28;20547;-68
2022/10/27 03:00:34;;;;;;;23.15;11.38;;;14.80;99.90;;;;;;5058427;28;20025;-67
2022/10/27 03:03:01;;;;;;;25.60;11.60;;;14.80;99.90;;;;;;5061930;28;20032;-68
2022/10/27 03:05:27;;;;;;;23.05;10.80;;;14.80;99.90;;;;;;5052382;28;20116;-67
2022/10/27 03:07:52;;;;;;;21.30;10.13;;;14.80;99.90;;;;;;5056369;28;20278;-67
2022/10/27 03:10:18;;;;;;;20.77;10.25;;;14.80;99.90;;;;;;5061051;28;20086;-67
2022/10/27 03:12:46;;;;;;;27.90;11.95;;;14.80;99.90;;;;;;5057532;28;20368;-67
2022/10/27 03:15:12;;;;;;;26.65;10.32;;;14.80;99.90;;;;;;5065902;28;20080;-67
2022/10/27 03:17:48;;;;;;;23.75;10.73;;;14.70;99.90;;;;;;5043195;28;20132;-68
2022/10/27 03:20:15;;;;;;;22.95;10.63;;;14.70;99.90;;;;;;5056570;28;20035;-67
2022/10/27 03:22:41;;;;;;;23.42;9.88;;;14.80;99.90;;;;;;5067721;28;20024;-67
2022/10/27 03:25:10;;;;;;;26.00;10.00;;;14.70;99.90;;;;;;5054589;28;20033;-67
2022/10/27 03:27:38;;;;;;;21.60;10.00;;;14.80;99.90;;;;;;5052621;28;20029;-67
2022/10/27 03:30:04;;;;;;;18.90;9.85;;;14.70;99.90;;;;;;5052351;28;20076;-67
2022/10/27 03:32:30;;;;;;;22.90;9.27;;;14.80;99.90;;;;;;5051790;28;20021;-67
2022/10/27 03:34:55;;;;;;;25.02;10.35;;;14.80;99.90;;;;;;5047423;28;20037;-67
2022/10/27 03:37:21;;;;;;;20.42;10.05;;;14.80;99.90;;;;;;5032071;28;20017;-67
2022/10/27 03:39:46;;;;;;;28.42;12.55;;;14.80;99.90;;;;;;5032400;28;20052;-67
2022/10/27 03:42:12;;;;;;;25.15;10.23;;;14.70;99.90;;;;;;5032361;28;20365;-68
2022/10/27 03:44:37;;;;;;;21.50;9.38;;;14.70;99.90;;;;;;5032311;28;20445;-67
2022/10/27 03:47:03;;;;;;;23.73;9.82;;;14.80;99.90;;;;;;5032095;28;20036;-67
2022/10/27 03:49:29;;;;;;;25.42;11.27;;;14.70;99.90;;;;;;5032089;28;20025;-67
2022/10/27 03:51:54;;;;;;;22.23;9.80;;;14.80;99.90;;;;;;5047540;28;20029;-67
2022/10/27 03:54:20;;;;;;;23.92;11.15;;;14.80;99.90;;;;;;5032410;28;20036;-67
2022/10/27 03:56:46;;;;;;;16.70;8.02;;;14.80;99.90;;;;;;5032730;28;20033;-67
2022/10/27 03:59:11;;;;;;;22.65;9.55;;;14.70;99.90;;;;;;5036229;28;20357;-66
2022/10/27 04:01:37;;;;;;;25.90;10.95;;;14.70;99.90;;;;;;5036075;28;20029;-66
2022/10/27 04:04:03;;;;;;;21.13;9.15;;;14.70;99.90;;;;;;5036148;28;20056;-68
2022/10/27 04:06:29;;;;;;;21.50;10.23;;;14.70;99.90;;;;;;5036272;28;20394;-67
2022/10/27 04:08:55;;;;;;;21.90;8.88;;;14.70;99.90;;;;;;5040216;28;20025;-66
2022/10/27 04:11:20;;;;;;;19.55;8.80;;;14.70;99.90;;;;;;5055826;28;20023;-67
2022/10/27 04:13:46;;;;;;;22.00;9.38;;;14.60;99.90;;;;;;5055780;28;20031;-67
2022/10/27 04:16:12;;;;;;;24.67;9.07;;;14.70;99.90;;;;;;5055993;28;20028;-67
2022/10/27 04:18:37;;;;;;;15.88;8.05;;;14.60;99.90;;;;;;5056176;28;20040;-67
2022/10/27 04:21:04;;;;;;;18.92;8.48;;;14.60;99.90;;;;;;5055787;28;20017;-67
2022/10/27 04:23:30;;;;;;;20.50;8.20;;;14.60;99.90;;;;;;5055044;28;20025;-67
2022/10/27 04:25:56;;;;;;;20.02;8.20;;;14.60;99.90;;;;;;5057055;28;20098;-67
2022/10/27 04:28:22;;;;;;;19.45;8.05;;;14.60;99.90;;;;;;5075062;28;20049;-67
2022/10/27 04:30:47;;;;;;;19.23;8.85;;;14.50;99.90;;;;;;5075335;28;20029;-67
2022/10/27 04:33:13;;;;;;;19.33;8.45;;;14.50;99.90;;;;;;5075480;28;20060;-67
2022/10/27 04:35:39;;;;;;;20.92;8.30;;;14.50;99.90;;;;;;5075348;28;20032;-67
2022/10/27 04:38:04;;;;;;;19.33;9.00;;;14.50;99.90;;;;;;5075442;28;20039;-67
2022/10/27 04:40:30;;;;;;;21.63;7.95;;;14.50;99.90;;;;;;5074131;28;20020;-67
2022/10/27 04:42:55;;;;;;;19.13;8.15;;;14.50;99.90;;;;;;5039727;28;20021;-67
2022/10/27 04:45:21;;;;;;;16.67;7.28;;;14.50;99.90;;;;;;5055152;28;20029;-67
2022/10/27 04:47:47;;;;;;;22.33;7.53;;;14.40;99.90;;;;;;5055075;28;20059;-67
2022/10/27 04:50:14;;;;;;;20.88;8.70;;;14.40;99.90;;;;;;5042705;28;20408;-67
2022/10/27 04:52:40;;;;;;;21.20;8.25;;;14.40;99.90;;;;;;5035311;28;20105;-67
2022/10/27 04:55:06;;;;;;;18.10;7.38;;;14.40;99.90;;;;;;5034711;28;20141;-67
2022/10/27 04:57:32;;;;;;;17.13;8.00;;;14.40;99.90;;;;;;5035535;28;20064;-67
2022/10/27 04:59:57;;;;;;;21.83;7.72;;;14.30;99.90;;;;;;5041501;28;20053;-67
2022/10/27 05:02:23;;;;;;;18.83;8.25;;;14.30;99.90;;;;;;5035121;28;20032;-67
2022/10/27 05:04:48;;;;;;;20.83;7.88;;;14.30;99.90;;;;;;5035260;28;20044;-67
2022/10/27 05:07:14;;;;;;;20.65;8.48;;;14.30;99.90;;;;;;5035349;28;20457;-67
2022/10/27 05:09:40;;;;;;;25.10;9.63;;;14.30;99.90;;;;;;5034578;28;20026;-67
2022/10/27 05:12:05;;;;;;;21.88;7.80;;;14.30;99.90;;;;;;5034769;28;20025;-67
2022/10/27 05:14:31;;;;;;;18.55;8.32;;;14.20;99.90;;;;;;5034709;28;20094;-67
2022/10/27 05:16:56;;;;;;;13.98;7.40;;;14.20;99.90;;;;;;5048698;28;20057;-67
2022/10/27 05:19:22;;;;;;;20.08;8.23;;;14.20;99.90;;;;;;5034865;28;20045;-67
2022/10/27 05:21:47;;;;;;;21.33;8.75;;;14.20;99.90;;;;;;5034904;28;20112;-67
2022/10/27 05:24:13;;;;;;;19.63;8.43;;;14.20;99.90;;;;;;5046370;28;20029;-67
2022/10/27 05:26:39;;;;;;;19.77;6.72;;;14.20;99.90;;;;;;5054907;28;20021;-67
2022/10/27 05:29:05;;;;;;;28.92;12.68;;;14.20;99.90;;;;;;5054603;28;20052;-67
2022/10/27 05:31:30;;;;;;;19.35;7.53;;;14.20;99.90;;;;;;5053858;28;20029;-67
2022/10/27 05:33:56;;;;;;;17.10;7.07;;;14.20;99.90;;;;;;5054554;28;20112;-68
2022/10/27 05:36:21;;;;;;;13.88;7.57;;;14.20;99.90;;;;;;5052788;28;20024;-68
2022/10/27 05:38:47;;;;;;;17.55;7.20;;;14.20;99.90;;;;;;5037918;28;20052;-68
2022/10/27 05:41:12;;;;;;;17.85;7.57;;;14.20;99.90;;;;;;5044236;28;20112;-67
2022/10/27 05:43:40;;;;;;;21.23;7.95;;;14.20;99.90;;;;;;5044000;28;20020;-68
2022/10/27 05:46:06;;;;;;;16.20;7.22;;;14.20;99.90;;;;;;5049652;28;20029;-67
2022/10/27 05:48:31;;;;;;;17.95;7.00;;;14.20;99.90;;;;;;5039065;28;20028;-67
2022/10/27 05:50:57;;;;;;;21.67;7.78;;;14.20;99.90;;;;;;5052891;28;20108;-67
2022/10/27 05:53:22;;;;;;;16.40;6.65;;;14.20;99.90;;;;;;5054018;28;20108;-68
2022/10/27 05:55:52;;;;;;;16.92;7.20;;;14.20;99.90;;;;;;5054161;28;20068;-68
2022/10/27 05:58:17;;;;;;;20.90;7.60;;;14.20;99.90;;;;;;5047459;28;20056;-68
2022/10/27 06:00:43;;;;;;;18.80;6.85;;;14.20;99.90;;;;;;5034614;28;20060;-67
2022/10/27 06:03:18;;;;;;;18.50;6.88;;;14.20;99.90;;;;;;5041050;28;20064;-68
2022/10/27 06:05:44;;;;;;;19.00;7.55;;;14.20;99.90;;;;;;5053741;28;20043;-66
2022/10/27 06:08:09;;;;;;;17.52;6.40;;;14.20;99.90;;;;;;5052362;28;20349;-67
2022/10/27 06:10:35;;;;;;;18.40;6.95;;;14.20;99.90;;;;;;5051747;28;20025;-67
2022/10/27 06:13:01;;;;;;;17.40;6.60;;;14.10;99.90;;;;;;5048274;28;20022;-67
2022/10/27 06:15:28;;;;;;;12.90;6.60;;;14.20;99.90;;;;;;5034539;28;20103;-67
2022/10/27 06:17:54;;;;;;;15.40;7.00;;;14.10;99.90;;;;;;5033863;28;20030;-67
2022/10/27 06:20:19;;;;;;;15.43;6.22;;;14.10;99.90;;;;;;5032639;28;20461;-67
2022/10/27 06:22:46;;;;;;;17.63;7.45;;;14.10;99.90;;;;;;5036032;28;20022;-68
2022/10/27 06:25:12;;;;;;;21.33;6.40;;;14.10;99.90;;;;;;5053731;28;20025;-66
2022/10/27 06:27:37;;;;;;;14.27;6.70;;;14.10;99.90;;;;;;5051520;28;20039;-67
2022/10/27 06:30:04;;;;;;;17.13;6.72;;;14.10;99.90;;;;;;5043668;28;20107;-67
2022/10/27 06:32:29;;;;;;;16.52;6.20;;;14.10;99.90;;;;;;5032971;28;20163;-68
2022/10/27 06:34:55;;;;;;;18.65;6.85;;;14.10;99.90;;;;;;5052802;28;20115;-68
2022/10/27 06:37:20;;;;;;;12.95;5.55;;;14.10;99.90;;;;;;5053342;28;20110;-68
2022/10/27 06:39:46;;;;;;;13.00;5.97;;;14.10;99.90;;;;;;5044026;28;20064;-68
2022/10/27 06:42:11;;;;;;;14.07;5.50;;;14.10;99.90;;;;;;5032931;28;20035;-66
2022/10/27 06:44:37;;;;;;;17.02;5.88;;;14.10;99.90;;;;;;5032990;28;20432;-68
2022/10/27 06:47:03;;;;;;;16.10;5.63;;;14.10;99.90;;;;;;5032852;28;20025;-67
2022/10/27 06:49:28;;;;;;;11.32;4.78;;;14.10;99.90;;;;;;5040695;28;20468;-68
2022/10/27 06:51:54;;;;;;;19.95;5.93;;;14.20;99.90;;;;;;5041227;28;20477;-66
2022/10/27 06:54:20;;;;;;;11.02;4.75;;;14.20;99.90;;;;;;5032790;28;20434;-67
2022/10/27 06:56:46;;;;;;;13.45;5.03;;;14.20;99.90;;;;;;5046160;28;20024;-68
2022/10/27 06:59:11;;;;;;;11.95;4.78;;;14.20;99.90;;;;;;5050942;28;20036;-68
2022/10/27 07:01:37;;;;;;;12.43;5.05;;;14.20;99.90;;;;;;5046412;28;20033;-67
2022/10/27 07:04:02;;;;;;;14.30;4.82;;;14.30;99.90;;;;;;5036200;28;20389;-67
2022/10/27 07:06:28;;;;;;;14.23;5.60;;;14.30;99.90;;;;;;5031739;28;20045;-67
2022/10/27 07:08:54;;;;;;;13.07;5.07;;;14.30;99.90;;;;;;5032806;28;20612;-67
2022/10/27 07:11:20;;;;;;;13.90;5.35;;;14.30;99.90;;;;;;5034239;28;20029;-68
2022/10/27 07:13:45;;;;;;;11.40;5.40;;;14.30;99.90;;;;;;5048502;28;20086;-68
2022/10/27 07:16:11;;;;;;;14.85;4.78;;;14.40;99.90;;;;;;5041644;28;20055;-67
2022/10/27 07:18:37;;;;;;;10.02;4.20;;;14.40;99.90;;;;;;5051712;28;20103;-67
2022/10/27 07:21:04;;;;;;;10.40;4.60;;;14.50;99.90;;;;;;5038678;28;20043;-69
2022/10/27 07:23:30;;;;;;;12.50;5.45;;;14.50;99.90;;;;;;5049426;28;20053;-66
2022/10/27 07:25:55;;;;;;;8.63;3.92;;;14.50;99.90;;;;;;5044761;28;20064;-67
2022/10/27 07:28:21;;;;;;;7.68;3.65;;;14.60;99.90;;;;;;5047944;28;20044;-67
2022/10/27 07:30:47;;;;;;;10.63;3.50;;;14.60;99.90;;;;;;5050178;28;20025;-67
2022/10/27 07:33:13;;;;;;;11.20;4.18;;;14.70;99.90;;;;;;5046509;28;20037;-67
2022/10/27 07:35:39;;;;;;;13.27;3.75;;;14.80;99.90;;;;;;5050415;28;20037;-67
2022/10/27 07:38:06;;;;;;;10.27;3.67;;;14.90;99.90;;;;;;5036848;28;20037;-69
2022/10/27 07:40:33;;;;;;;8.52;3.28;;;15.00;99.90;;;;;;5040351;28;20025;-68
2022/10/27 07:42:59;;;;;;;8.73;2.78;;;15.10;99.90;;;;;;5043366;28;20041;-68
2022/10/27 07:45:26;;;;;;;14.00;3.70;;;15.20;99.90;;;;;;5032200;28;20022;-67
2022/10/27 07:47:53;;;;;;;8.10;2.72;;;15.30;99.90;;;;;;5045464;28;20029;-67
2022/10/27 07:50:22;;;;;;;7.85;2.80;;;15.40;99.90;;;;;;5049161;28;20056;-68
2022/10/27 07:52:50;;;;;;;12.05;3.17;;;15.50;99.90;;;;;;5031936;28;20065;-68
2022/10/27 07:55:18;;;;;;;11.80;3.63;;;15.70;99.90;;;;;;5032194;28;20038;-68
2022/10/27 07:57:44;;;;;;;11.60;3.53;;;15.80;99.90;;;;;;5032409;28;20026;-68
2022/10/27 08:00:12;;;;;;;9.70;2.78;;;15.90;99.90;;;;;;5034069;28;20524;-68
2022/10/27 08:02:38;;;;;;;11.45;3.30;;;16.10;99.90;;;;;;5040542;28;20743;-68
2022/10/27 08:05:04;;;;;;;8.85;3.40;;;16.20;99.90;;;;;;5038034;28;20040;-68
2022/10/27 08:07:29;;;;;;;8.60;2.60;;;16.30;99.90;;;;;;5031979;28;20036;-68
2022/10/27 08:09:55;;;;;;;11.20;2.70;;;16.50;99.90;;;;;;5033292;28;20018;-68
2022/10/27 08:12:21;;;;;;;8.70;2.95;;;16.60;99.90;;;;;;5032621;28;20036;-67
2022/10/27 08:14:46;;;;;;;7.68;2.47;;;16.80;99.90;;;;;;5031682;28;20037;-67
2022/10/27 08:17:13;;;;;;;9.13;2.85;;;16.90;99.90;;;;;;5031726;28;20471;-67
2022/10/27 08:19:39;;;;;;;7.80;2.40;;;17.00;99.90;;;;;;5042640;28;20032;-67
2022/10/27 08:22:04;;;;;;;5.32;2.15;;;17.20;99.90;;;;;;5046204;28;20099;-67
2022/10/27 08:24:30;;;;;;;4.95;2.17;;;17.30;99.90;;;;;;5042518;28;20449;-67
2022/10/27 08:26:56;;;;;;;4.97;2.58;;;17.40;99.90;;;;;;5049792;28;20017;-67
2022/10/27 08:29:21;;;;;;;4.70;1.92;;;17.50;99.90;;;;;;5041257;28;20392;-68
2022/10/27 08:31:47;;;;;;;7.68;2.50;;;17.60;99.90;;;;;;5035734;28;20036;-67
2022/10/27 08:34:13;;;;;;;5.85;2.13;;;17.70;99.90;;;;;;5050586;28;20102;-67
2022/10/27 08:36:38;;;;;;;6.53;1.85;;;17.90;99.90;;;;;;5051762;28;20013;-67
2022/10/27 08:39:05;;;;;;;8.45;2.00;;;18.00;99.90;;;;;;5051674;28;20029;-67
2022/10/27 08:41:41;;;;;;;10.15;2.67;;;18.10;99.90;;;;;;5051914;28;20024;-67
2022/10/27 08:44:28;;;;;;;11.32;3.17;;;18.10;99.90;;;;;;5059068;28;20096;-67
2022/10/27 08:46:58;;;;;;;4.35;2.03;;;18.20;99.90;;;;;;5075280;28;20025;-67
2022/10/27 08:49:37;;;;;;;7.85;2.60;;;18.30;99.90;;;;;;5064468;28;20075;-67
2022/10/27 08:52:22;;;;;;;5.28;2.40;;;18.40;99.90;;;;;;5055242;28;20013;-67
2022/10/27 08:54:53;;;;;;;7.13;2.65;;;18.50;99.90;;;;;;5054616;28;20135;-67
2022/10/27 08:57:24;;;;;;;10.43;4.55;;;18.70;99.90;;;;;;5054821;28;20044;-67
2022/10/27 08:59:57;;;;;;;7.65;2.40;;;18.70;99.90;;;;;;5054752;28;20476;-67
2022/10/27 09:02:39;;;;;;;7.65;2.25;;;18.70;99.90;;;;;;5041939;28;20150;-66
2022/10/27 09:05:33;;;;;;;6.75;1.77;;;18.80;99.90;;;;;;5045953;28;20133;-67
2022/10/27 09:08:04;;;;;;;4.18;1.77;;;18.90;99.90;;;;;;5034655;28;20083;-67
2022/10/27 09:10:51;;;;;;;5.30;2.07;;;19.10;99.90;;;;;;5037659;28;20108;-67
2022/10/27 09:13:32;;;;;;;5.68;2.22;;;19.40;99.90;;;;;;5035466;28;20393;-67
2022/10/27 09:16:05;;;;;;;6.05;1.83;;;19.70;99.90;;;;;;5037650;28;20036;-68
2022/10/27 09:18:46;;;;;;;7.18;1.90;;;20.00;99.90;;;;;;5062756;28;20017;-67
2022/10/27 09:21:18;;;;;;;5.78;2.15;;;20.30;99.90;;;;;;5053749;28;20036;-67
2022/10/27 09:23:52;;;;;;;8.10;3.50;;;20.60;99.90;;;;;;5041724;28;20025;-67
2022/10/27 09:26:23;;;;;;;5.72;1.80;;;20.60;99.90;;;;;;5051217;28;20094;-67
2022/10/27 09:28:50;;;;;;;4.70;2.42;;;20.70;99.90;;;;;;5054049;28;20416;-67
2022/10/27 09:31:22;;;;;;;4.47;1.80;;;20.70;99.90;;;;;;5051637;28;20434;-67
2022/10/27 09:34:02;;;;;;;8.17;2.40;;;20.80;99.90;;;;;;5052923;28;20360;-67
2022/10/27 09:36:28;;;;;;;6.32;2.97;;;20.80;99.90;;;;;;5054467;28;20266;-67
2022/10/27 09:38:53;;;;;;;6.63;2.13;;;20.80;99.90;;;;;;5052005;28;20036;-68
2022/10/27 09:41:19;;;;;;;3.17;1.73;;;21.10;99.90;;;;;;5048742;28;20064;-67
2022/10/27 09:43:46;;;;;;;2.88;1.33;;;21.50;99.90;;;;;;5037975;28;20029;-67
2022/10/27 09:46:38;;;;;;;5.05;1.65;;;21.70;99.90;;;;;;5034053;28;20021;-68
2022/10/27 09:49:05;;;;;;;2.50;1.77;;;22.00;99.90;;;;;;5031624;28;20029;-68
2022/10/27 09:51:45;;;;;;;6.65;2.42;;;22.10;99.90;;;;;;5050025;28;20113;-68
2022/10/27 09:54:27;;;;;;;4.85;2.13;;;22.20;99.90;;;;;;5038768;28;20025;-67
2022/10/27 09:56:53;;;;;;;4.45;2.05;;;22.30;99.90;;;;;;5054009;28;20033;-67
2022/10/27 09:59:22;;;;;;;4.97;1.70;;;22.40;99.90;;;;;;5053383;28;20040;-67
2022/10/27 10:01:56;;;;;;;7.85;3.15;;;22.90;99.90;;;;;;5068794;28;20036;-68
2022/10/27 10:04:44;;;;;;;4.75;1.67;;;23.60;99.90;;;;;;5054045;28;20028;-68
2022/10/27 10:07:33;;;;;;;7.20;1.75;;;24.00;99.00;;;;;;5053648;28;20419;-68
2022/10/27 10:10:01;;;;;;;4.95;1.67;;;23.80;98.80;;;;;;5053883;28;20103;-68
2022/10/27 10:12:27;;;;;;;6.60;2.60;;;23.80;98.90;;;;;;5053648;28;20059;-67
2022/10/27 10:15:10;;;;;;;3.15;1.83;;;23.70;98.70;;;;;;5053624;28;20065;-67
2022/10/27 10:17:41;;;;;;;5.72;1.48;;;23.60;98.90;;;;;;5053989;28;20460;-68
2022/10/27 10:20:40;;;;;;;6.77;2.67;;;23.30;99.00;;;;;;5053449;28;20021;-68
2022/10/27 10:23:27;;;;;;;7.60;2.72;;;23.00;99.60;;;;;;5053867;28;20124;-67
2022/10/27 10:25:56;;;;;;;6.13;2.08;;;22.90;99.90;;;;;;5053603;28;20049;-68
2022/10/27 10:28:43;;;;;;;5.53;1.75;;;22.90;99.90;;;;;;5052927;28;20489;-67
2022/10/27 10:31:13;;;;;;;8.43;2.20;;;22.90;99.80;;;;;;5053256;28;20032;-68
2022/10/27 10:33:45;;;;;;;8.30;2.75;;;22.80;99.90;;;;;;5050644;28;20161;-67
2022/10/27 10:36:33;;;;;;;3.35;1.42;;;22.60;99.90;;;;;;5053181;28;20468;-67
2022/10/27 10:39:00;;;;;;;7.80;1.85;;;22.70;99.90;;;;;;5053546;28;20029;-67
2022/10/27 10:41:27;;;;;;;3.13;1.63;;;22.90;99.80;;;;;;5052991;28;20056;-67
2022/10/27 10:44:12;;;;;;;5.05;2.10;;;23.00;99.80;;;;;;5052183;28;20039;-67
2022/10/27 10:46:53;;;;;;;5.38;2.20;;;23.00;99.80;;;;;;5059255;28;20297;-67
2022/10/27 10:49:22;;;;;;;8.70;2.50;;;22.90;99.90;;;;;;5056641;28;20036;-67
2022/10/27 10:52:15;;;;;;;7.00;1.90;;;23.10;99.90;;;;;;5059415;28;20472;-67
2022/10/27 10:54:48;;;;;;;4.70;2.42;;;23.40;99.30;;;;;;5064792;28;20039;-67
2022/10/27 10:57:32;;;;;;;8.07;2.20;;;23.50;99.20;;;;;;5057524;28;20033;-66
2022/10/27 10:59:58;;;;;;;10.00;1.90;;;23.40;99.30;;;;;;5061861;28;20078;-67
2022/10/27 11:02:32;;;;;;;6.65;1.95;;;23.40;99.50;;;;;;5058367;28;20414;-66
2022/10/27 11:05:13;;;;;;;6.72;1.45;;;23.40;99.50;;;;;;5059674;28;20036;-67
2022/10/27 11:07:39;;;;;;;2.78;1.83;;;23.60;99.10;;;;;;5038767;28;20048;-67
2022/10/27 11:10:26;;;;;;;5.15;1.80;;;23.70;99.40;;;;;;5052817;28;20056;-67
2022/10/27 11:13:03;;;;;;;4.25;1.70;;;23.80;98.80;;;;;;5051412;28;20025;-67
2022/10/27 11:15:31;;;;;;;8.18;2.03;;;23.80;98.70;;;;;;5052281;28;20044;-66
2022/10/27 11:18:17;;;;;;;6.90;2.13;;;23.60;98.70;;;;;;5051301;28;20083;-67
2022/10/27 11:20:47;;;;;;;6.60;1.60;;;23.40;99.10;;;;;;5042887;28;20140;-67
2022/10/27 11:23:44;;;;;;;6.18;2.13;;;23.30;99.40;;;;;;5047459;28;20067;-67
2022/10/27 11:26:12;;;;;;;6.05;2.00;;;23.30;99.40;;;;;;5042347;28;20041;-66
2022/10/27 11:28:47;;;;;;;3.13;1.27;;;23.30;99.20;;;;;;5053104;28;20472;-66
2022/10/27 11:31:34;;;;;;;3.60;1.83;;;23.00;99.40;;;;;;5051486;28;20032;-66
2022/10/27 11:34:11;;;;;;;7.47;1.95;;;22.80;99.90;;;;;;5047363;28;20361;-66
2022/10/27 11:36:40;;;;;;;6.90;2.35;;;22.60;99.90;;;;;;5041215;28;20488;-67
2022/10/27 11:39:15;;;;;;;5.78;1.88;;;22.50;99.90;;;;;;5051154;28;20033;-66
2022/10/27 11:42:05;;;;;;;2.88;1.67;;;22.30;99.90;;;;;;5051519;28;20030;-67
2022/10/27 11:45:10;;;;;;;4.38;2.15;;;22.10;99.90;;;;;;5052269;28;20044;-67
2022/10/27 11:47:48;;;;;;;7.00;1.73;;;21.90;99.90;;;;;;5063768;28;20037;-67
2022/10/27 11:50:26;;;;;;;5.53;1.98;;;21.70;99.90;;;;;;5049471;28;20076;-67
2022/10/27 11:52:56;;;;;;;6.90;1.77;;;21.60;99.90;;;;;;5041335;28;20444;-67
2022/10/27 11:55:26;;;;;;;7.13;1.88;;;21.40;99.90;;;;;;5051066;28;21151;-67
2022/10/27 11:58:10;;;;;;;8.05;1.95;;;21.20;99.90;;;;;;5051925;28;20021;-66
2022/10/27 12:00:52;;;;;;;6.90;2.22;;;20.80;99.90;;;;;;5050476;28;20033;-67
2022/10/27 12:03:21;;;;;;;;;;;20.50;99.90;;;;;;5051657;28;20265;-66
2022/10/27 12:05:55;;;;;;;5.70;1.95;;;20.20;99.90;;;;;;5052215;28;19913;-66
2022/10/27 12:08:40;;;;;;;12.75;2.58;;;19.80;99.90;;;;;;5052145;28;20471;-66
2022/10/27 12:11:15;;;;;;;5.13;2.03;;;19.50;99.90;;;;;;5052332;28;20120;-67
2022/10/27 12:14:06;;;;;;;7.43;2.30;;;19.30;99.90;;;;;;5052138;28;20056;-67
2022/10/27 12:16:45;;;;;;;4.05;1.85;;;19.20;99.90;;;;;;5044527;28;20028;-67
2022/10/27 12:19:32;;;;;;;7.22;2.75;;;19.10;99.90;;;;;;5039306;28;20362;-67
2022/10/27 12:22:07;;;;;;;9.02;2.10;;;19.10;99.90;;;;;;5036052;28;20029;-67
2022/10/27 12:24:48;;;;;;;8.70;2.53;;;19.10;99.90;;;;;;5035993;28;20034;-68
2022/10/27 12:27:28;;;;;;;5.43;1.73;;;19.00;99.90;;;;;;5042828;28;20108;-68
2022/10/27 12:30:10;;;;;;;7.88;2.28;;;19.10;99.90;;;;;;5035447;28;20046;-68
2022/10/27 12:32:41;;;;;;;4.93;2.08;;;19.30;99.90;;;;;;5043175;28;20091;-68
2022/10/27 12:35:35;;;;;;;7.10;2.95;;;19.50;99.90;;;;;;5046742;28;20033;-68
2022/10/27 12:39:02;;;;;;;8.32;3.10;;;19.70;99.90;;;;;;5049298;28;20017;-68
2022/10/27 12:41:52;;;;;;;6.18;2.00;;;20.00;99.90;;;;;;5004177;28;20181;-68
2022/10/27 12:44:39;;;;;;;4.00;2.10;;;20.20;99.90;;;;;;5052810;28;20159;-69
2022/10/27 12:47:25;;;;;;;7.32;2.65;;;20.40;99.90;;;;;;5044356;28;20072;-68
2022/10/27 12:49:54;;;;;;;9.40;2.78;;;20.60;99.90;;;;;;5035261;28;20457;-68
2022/10/27 12:52:25;;;;;;;9.40;3.38;;;20.90;99.90;;;;;;5047897;28;20035;-68
2022/10/27 12:55:35;;;;;;;4.93;1.73;;;21.20;99.90;;;;;;5038307;28;20029;-68
2022/10/27 12:58:31;;;;;;;7.05;2.22;;;21.40;99.90;;;;;;5012854;28;20299;-67
2022/10/27 13:01:22;;;;;;;5.07;1.70;;;21.50;99.90;;;;;;5048652;28;20370;-68